Tiempo atmosférico en la estación meteorológica de Reinosa, Cantabria (875 m.)



Fecha
DESCASC
Temp. máxima en grados centígrados (hora)
DESCASC
Temp. mínima en grados centígrados (hora)
DESCASC
Temp. media en grados centígrados
DESCASC
Racha de viento máxima en m/sg (hora)
DESCASC
Velocidad máxima media en intervalos de 10 minutos(hora)
DESCASC
Precipitaciones diarias en mm
DESCASC
Precipitaciones de 00:00 a 06:00 en mm
DESCASC
Precipitaciones de 06:00 a 12:00 en mm
DESCASC
Precipitaciones de 12:00 a 18:00 en mm
DESCASC
Precipitaciones de 18:00 a 24:00 en mm
DESCASC
18-08-2019 23.1 (13:40) 7.6 (06:30) 15.4 9.44 (16:10) 5.83 (16:40) 1.5 0 0 1.5 0
17-08-2019 29.3 (15:10) 8.1 (08:00) 18.7 10.28 (15:00) 5 (16:10) 0 0 0 0 0
16-08-2019 27.7 (13:40) 8.9 (07:20) 18.3 8.33 (16:50) 5.56 (18:00) 0 0 0 0 0
15-08-2019 18.1 (12:50) 13.3 (00:00) 15.7 7.78 (15:30) 5 (15:40) 0 0 0 0 0
14-08-2019 25.1 (14:40) 7.7 (00:00) 16.4 8.61 (15:50) 5.28 (16:20) 0 0 0 0 0
13-08-2019 20.6 (15:50) 5.3 (00:00) 13 8.89 (14:50) 3.89 (16:00) 0 0 0 0 0
12-08-2019 17.9 (15:50) 5.1 (00:00) 11.5 10.83 (11:10) 6.11 (11:30) 0.1 0 0.1 0 0
11-08-2019 16.1 (15:40) 10.3 (00:00) 13.2 7.78 (15:50) 5 (15:50) 13.8 2.6 2.1 8.6 0.5
10-08-2019 21.5 (13:20) 13.3 (00:00) 17.4 15.28 (15:10) 5.56 (16:10) 0 0 0 0 0
09-08-2019 27 (15:00) 15.6 (00:00) 21.3 16.39 (13:40) 8.33 (01:30) 0.2 0 0.2 0 0
08-08-2019 27.2 (17:30) 17.5 (00:00) 22.4 16.39 (17:10) 8.61 (17:20) 0 0 0 0 0
07-08-2019 25.1 (14:40) 12.6 (00:00) 18.9 12.22 (18:10) 5.83 (18:10) 0 0 0 0 0
06-08-2019 26.5 (13:50) 8.8 (00:00) 17.7 8.89 (16:50) 5.28 (15:50) 0.1 0 0 0 0.1
05-08-2019 25.1 (14:40) 8.8 (00:00) 17 9.17 (15:50) 5 (15:30) 0.1 0 0.1 0 0
04-08-2019 24.5 (14:10) 10.3 (00:00) 17.4 8.89 (17:00) 5 (16:00) 0 0 0 0 0
03-08-2019 28.9 (14:20) 9 (00:00) 18.9 8.33 (15:30) 5.83 (17:10) 0 0 0 0 0
02-08-2019 25.2 (16:50) 10.7 (00:00) 18 6.67 (17:30) 4.44 (17:30) 0 0 0 0 0
01-08-2019 20.1 (18:00) 9.2 (00:00) 14.7 6.67 (20:00) 4.17 (20:00) 0 0 0 0 0
31-07-2019 21.2 (15:50) 10.1 (00:00) 15.7 6.94 (15:10) 3.89 (17:20) 0 0 0 0 0
30-07-2019 18.4 (13:40) 10.9 (00:00) 14.6 7.22 (15:30) 4.44 (19:00) 0 0 0 0 0
29-07-2019 22.4 (13:10) 7.4 (00:00) 14.9 9.17 (15:50) 5.28 (15:50) 0 0 0 0 0
28-07-2019 22.1 (17:50) 7.4 (00:00) 14.8 7.5 (02:10) 4.17 (18:50) 0 0 0 0 0
27-07-2019 15.8 (17:30) 10.4 (00:00) 13.1 9.44 (18:20) 6.67 (18:10) 19 14 3.5 1.5 0
26-07-2019 17.1 (00:40) 12.5 (00:00) 14.8 7.22 (11:20) 5 (11:20) 4.9 0.3 3.2 1.4 0
25-07-2019 31.2 (16:30) 12.4 (00:00) 21.8 11.94 (16:30) 5.83 (18:20) 0 0 0 0 0
24-07-2019 33.1 (17:20) 12.3 (00:00) 22.7 11.67 (15:40) 6.67 (15:30) 0 0 0 0 0
23-07-2019 32.9 (17:40) 11.9 (00:00) 22.4 16.94 (10:00) 8.89 (10:00) 0.2 0 0 0 0.2
22-07-2019 33.1 (15:10) 15.9 (00:00) 24.5 18.61 (21:50) 11.11 (21:50) 1.3 0 0 0 1.3

Gráficas

Temp. máximas Temp. mínimas Temp. medias Precipitaciones Rachas de viento máximas Velocidades máximas media en intervalos de 10 minutos

Datos horarios

Fecha y hora oficial Temperatura (ºC) Velocidad del viento (km/h) Dirección del viento Racha (km/h) Dirección de racha Precipitación (mm) Presión (hPa) Tendencia (hPa) Humedad (%)
2019-08-20 23:00:00 11 4 Sur 7 Sur 0 925.1 0.5 86
2019-08-20 22:00:00 12.4 2 Noroeste 14 Norte 0 924.8 0.7 75
2019-08-20 21:00:00 14.7 9 Norte 21 Noroeste 0 924.5 0.2 66
2019-08-20 20:00:00 16.4 10 Norte 23 Norte 0 924.6 0.1 58
2019-08-20 19:00:00 18.1 11 Norte 27 Norte 0 924.1 -0.6 49
2019-08-20 18:00:00 18.5 14 Norte 29 Norte 0 924.3 -0.6 52
2019-08-20 17:00:00 17.3 11 Norte 28 Nordeste 0 924.5 -0.4 58
2019-08-20 16:00:00 19.5 14 Norte 30 Nordeste 0 924.7 -0.2 51
2019-08-20 15:00:00 18 13 Nordeste 33 Nordeste 0 924.9 0 58
2019-08-20 14:00:00 16.3 13 Nordeste 27 Nordeste 0 924.9 0.3 66
2019-08-20 13:00:00 17.2 12 Nordeste 26 Nordeste 0 924.9 0.9 68
2019-08-20 12:00:00 13.9 10 Este 21 Nordeste 0 924.9 1.4 78
2019-08-20 11:00:00 12.8 8 Nordeste 25 Nordeste 0 924.6 1.6 84
2019-08-20 10:00:00 12.6 10 Nordeste 29 Nordeste 0 924 1.7 83
2019-08-20 09:00:00 12.1 12 Noroeste 22 Noroeste 0 923.5 1.4 84
2019-08-20 08:00:00 12.4 8 Oeste 21 Nordeste 0 923 1 75
2019-08-20 07:00:00 12.1 4 Norte 22 Este 0 922.3 0.4 79
2019-08-20 06:00:00 12.1 9 Norte 21 Noroeste 0 922.1 0.3 82
2019-08-20 05:00:00 12.1 5 Norte 24 Norte 0 922 0 87
2019-08-20 04:00:00 12.3 3 Norte 21 Noroeste 0 921.9 -0.7 84
2019-08-20 03:00:00 12.4 6 Norte 23 Norte 0 921.8 -0.5 83
2019-08-20 02:00:00 12.2 4 Nordeste 23 Nordeste 0 922 -0.5 86
2019-08-20 01:00:00 12.3 3 Norte 22 Norte 0 922.6 0.8 89
2019-08-20 00:00:00 12.3 6 Noroeste 21 Noroeste 0 922.3 0.3 86
2019-08-19 23:00:00 12.7 12 Noroeste 22 Noroeste 0 922.5 0.9 82
2019-08-19 22:00:00 12.6 6 Norte -- -- 0 921.8 0.8 82
2019-08-19 21:00:00 12.4 10 Norte 23 Norte 0 922 0.9 86
2019-08-19 20:00:00 13.7 7 Norte 24 Noroeste 0 921.6 0.6 78
2019-08-19 19:00:00 14.5 8 Norte 30 Norte 0 921 -0.2 74
2019-08-19 18:00:00 14.9 13 Norte 27 Nordeste 0 921.1 -0.4 72
2019-08-19 17:00:00 16 9 Norte 27 Nordeste 0 921 -0.3 65
2019-08-19 16:00:00 17.5 10 Norte 23 Nordeste 0 921.2 0.1 59
2019-08-19 15:00:00 16.6 12 Nordeste 28 Nordeste 0 921.5 0.4 62
2019-08-19 14:00:00 15.5 11 Nordeste 25 Nordeste 0 921.3 0.2 65
2019-08-19 13:00:00 14.7 11 Nordeste 24 Nordeste 0 921.1 0.5 69
2019-08-19 12:00:00 13.7 14 Nordeste 23 Nordeste 0 921.1 0.4 76
2019-08-19 11:00:00 13.4 9 Nordeste 19 Nordeste 0 921.1 0.6 78
2019-08-19 10:00:00 12.4 0 Calma 8 Este 0 920.6 0.7 87
2019-08-19 09:00:00 11.7 5 Este 11 Este 0 920.7 0.7 91
2019-08-19 08:00:00 11.5 4 Este 8 Sudeste 0 920.5 0.1 91
2019-08-19 07:00:00 11.5 3 Este 10 Oeste 0 919.9 -0.3 90
2019-08-19 06:00:00 11.6 9 Oeste 14 Noroeste 0 920 -0.5 85
2019-08-19 05:00:00 11.9 6 Oeste 12 Oeste 0 920.4 -0.2 88
2019-08-19 04:00:00 11.7 3 Sudeste 7 Este 0 920.2 -0.6 92
2019-08-19 03:00:00 11.5 3 Sudeste 9 Sudeste 0 920.5 -0.3 92
2019-08-19 02:00:00 11.8 3 Sudeste 7 Sudeste 0 920.6 0.2 91
2019-08-19 01:00:00 11.9 0 Calma 12 Este 0 920.8 1.3 91
2019-08-19 00:00:00 12 6 Este 13 Este 0 920.8 1.9 90
2019-08-18 23:00:00 12.6 5 Nordeste 15 Nordeste 0 920.4 2.1 87
2019-08-18 22:00:00 13.3 6 Noroeste 15 Noroeste 0 919.5 1.5 82
2019-08-18 21:00:00 14.1 3 Norte 18 Noroeste 0 918.9 0.9 81
2019-08-18 20:00:00 14.8 9 Noroeste 19 Noroeste 0 918.3 0.8 78
2019-08-18 19:00:00 15.1 7 Nordeste 22 Noroeste 0 918 0.7 85
2019-08-18 18:00:00 15.3 13 Noroeste 20 Noroeste 0 918 1.4 83
2019-08-18 17:00:00 15 4 Nordeste 34 Noroeste 1.5 917.5 1.1 88
2019-08-18 16:00:00 16.7 6 Noroeste 28 Nordeste 0 917.3 0.8 71
2019-08-18 15:00:00 18.8 16 Nordeste 30 Nordeste 0 916.6 0.2 69
2019-08-18 14:00:00 22 10 Nordeste 26 Este 0 916.4 0.4 54
2019-08-18 13:00:00 21.9 10 Nordeste 23 Este 0 916.5 0.9 57
2019-08-18 12:00:00 20 10 Nordeste 22 Nordeste 0 916.4 1.2 67
2019-08-18 11:00:00 19.6 3 Nordeste 9 Nordeste 0 916 1.4 72
2019-08-18 10:00:00 16.5 2 Sudoeste 5 Sudoeste 0 915.6 1.7 86
2019-08-18 09:00:00 12.3 5 Sudoeste 8 Sudoeste 0 915.2 1.7 93
2019-08-18 08:00:00 9.8 2 Sudeste 8 Sudeste 0 914.6 0.9 93
2019-08-18 07:00:00 9.3 0 Calma 8 Sudoeste 0 913.9 -0.3 93
2019-08-18 06:00:00 10.1 0 Calma 6 Oeste 0 913.5 -1 93
2019-08-18 05:00:00 8.9 4 Oeste 8 Sudeste 0 913.7 -1.2 93
2019-08-18 04:00:00 11.3 2 Sur 5 Sur 0 914.2 -0.8 93
2019-08-18 03:00:00 10.2 6 Noroeste 9 Oeste 0 914.5 -0.6 92
2019-08-18 02:00:00 12.2 0 Calma 9 Sudoeste 0 914.9 -0.6 91
2019-08-18 01:00:00 14.5 6 Sudoeste 10 Sudoeste 0 915 -0.3 93
2019-08-18 00:00:00 14.1 4 Oeste 6 Noroeste 0 915.1 -0.2 93
2019-08-17 23:00:00 15.5 2 Sudoeste 4 Oeste 0 915.5 0.3 90
2019-08-17 22:00:00 16.9 0 Calma 10 Este 0 915.3 0 86
2019-08-17 21:00:00 19.7 5 Sudeste 19 Este 0 915.3 -0.1 77
2019-08-17 20:00:00 21.7 12 Nordeste 24 Nordeste 0 915.2 -0.2 65
2019-08-17 19:00:00 23.7 17 Nordeste 25 Este 0 915.3 -0.7 54
2019-08-17 18:00:00 25.3 17 Nordeste 28 Este 0 915.4 -1.3 46
2019-08-17 17:00:00 27.2 13 Nordeste 28 Este 0 915.4 -2.1 40
2019-08-17 16:00:00 28.5 12 Nordeste 27 Nordeste 0 916 -2 36
2019-08-17 15:00:00 28.6 9 Este 37 Este 0 916.7 -1.8 32
2019-08-17 14:00:00 27.3 12 Este 22 Este 0 917.5 -1.2 34
2019-08-17 13:00:00 25.4 10 Nordeste 20 Este 0 918 -0.8 36
2019-08-17 12:00:00 23.9 6 Este 14 Nordeste 0 918.5 -0.1 38
2019-08-17 11:00:00 22 5 Este 9 Nordeste 0 918.7 0.3 43
2019-08-17 10:00:00 17.3 0 Calma 4 Sudeste 0 918.8 0.7 62
2019-08-17 09:00:00 13.3 3 Sudeste 5 Sur 0 918.6 0.5 79
2019-08-17 08:00:00 8.5 3 Oeste 6 Sur 0 918.4 0 92
2019-08-17 07:00:00 9.5 4 Oeste 8 Oeste 0 918.1 -0.7 92
2019-08-17 06:00:00 9.3 3 Oeste 9 Oeste 0 918.1 -1.1 92
2019-08-17 05:00:00 11.2 6 Sudoeste 10 Sudoeste 0 918.4 -1 92
2019-08-17 04:00:00 9.8 4 Oeste 7 Sur 0 918.8 -0.6 92
2019-08-17 03:00:00 11.2 2 Oeste 7 Sudoeste 0 919.2 -0.7 92
2019-08-17 02:00:00 12.6 4 Sur 7 Sur 0 919.4 -0.4 91
2019-08-17 01:00:00 12.6 6 Sudoeste 8 Sudoeste 0 919.4 0 90
2019-08-17 00:00:00 12.1 7 Noroeste 9 Noroeste 0 919.9 0.9 90
2019-08-16 23:00:00 15.4 4 Sudeste 8 Este 0 919.8 1.2 78
2019-08-16 22:00:00 14.9 0 Calma 14 Este 0 919.4 1 74
2019-08-16 21:00:00 18.3 7 Este 14 Este 0 919 0.6 64
2019-08-16 20:00:00 20.7 10 Nordeste 27 Este 0 918.6 0.1 57
2019-08-16 19:00:00 23.2 12 Nordeste 28 Este 0 918.4 -0.2 51
2019-08-16 18:00:00 24.9 20 Nordeste 28 Este 0 918.4 -0.6 43
2019-08-16 17:00:00 25.6 14 Nordeste 30 Nordeste 0 918.5 -0.6 41
2019-08-16 16:00:00 26.2 15 Nordeste 28 Este 0 918.6 -0.8 43
2019-08-16 15:00:00 26.4 17 Nordeste 28 Nordeste 0 919 -0.9 40
2019-08-16 14:00:00 26.8 17 Nordeste 27 Nordeste 0 919.1 -1 40
2019-08-16 13:00:00 25.7 5 Este 13 Nordeste 0 919.4 -1 43
2019-08-16 12:00:00 22.3 4 Nordeste 10 Este 0 919.9 -0.8 53
2019-08-16 11:00:00 19.2 0 Calma 7 Nordeste 0 920.1 -0.8 64
2019-08-16 10:00:00 16 2 Nordeste 6 Nordeste 0 920.4 -0.3 76
2019-08-16 09:00:00 12.8 0 Calma 0 Calma 0 920.7 -0.1 93
2019-08-16 08:00:00 9.6 0 Calma 6 Oeste 0 920.9 -0.3 93
2019-08-16 07:00:00 9.6 2 Oeste 7 Sudoeste 0 920.7 -0.9 93
2019-08-16 06:00:00 11 5 Sudoeste 8 Sudoeste 0 920.8 -1.3 93
2019-08-16 05:00:00 11.9 4 Noroeste 9 Sudoeste 0 921.2 -1.4 93
2019-08-16 04:00:00 12.5 7 Noroeste 9 Noroeste 0 921.6 -1.2 93
2019-08-16 03:00:00 13.2 2 Sur 8 Sudoeste 0 922.1 -1.2 93
2019-08-16 02:00:00 13.2 3 Oeste 7 Noroeste 0 922.6 -0.8 93
2019-08-16 01:00:00 13.6 0 Calma 11 Este 0 922.8 -0.4 93
2019-08-16 00:00:00 13.4 8 Este 18 Este 0 923.3 0.5 93
2019-08-15 23:00:00 14.1 7 Nordeste 14 Nordeste 0 923.4 0.6 91
2019-08-15 22:00:00 13.8 6 Nordeste 12 Nordeste 0 923.2 0.1 91
2019-08-15 21:00:00 14.4 6 Este 17 Nordeste 0 922.8 -0.1 89
2019-08-15 20:00:00 15.3 9 Nordeste 21 Nordeste 0 922.8 -0.5 86
2019-08-15 19:00:00 15.9 9 Nordeste 25 Norte 0 923.1 -0.3 82
2019-08-15 18:00:00 16.4 11 Nordeste 25 Nordeste 0 922.9 -0.7 78
2019-08-15 17:00:00 16.6 15 Nordeste 27 Nordeste 0 923.3 -0.4 76
2019-08-15 16:00:00 17 17 Nordeste 28 Este 0 923.4 -0.5 74
2019-08-15 15:00:00 17.9 11 Nordeste 22 Nordeste 0 923.6 -0.1 69
2019-08-15 14:00:00 17.2 10 Nordeste 24 Este 0 923.7 0 69
2019-08-15 13:00:00 17.6 12 Nordeste 21 Este 0 923.9 0.1 67
2019-08-15 12:00:00 17 10 Nordeste 22 Este 0 923.7 0.3 74
2019-08-15 11:00:00 15.5 14 Nordeste 22 Este 0 923.7 0.4 83
2019-08-15 10:00:00 15.2 12 Este 19 Este 0 923.8 0.9 88
2019-08-15 09:00:00 14.5 9 Este 14 Nordeste 0 923.4 0.9 92
2019-08-15 08:00:00 14.1 4 Nordeste 12 Nordeste 0 923.3 0.9 93
2019-08-15 07:00:00 13.9 3 Nordeste 16 Este 0 922.9 0.3 93
2019-08-15 06:00:00 14.6 6 Este 11 Este 0 922.5 0.1 92
2019-08-15 05:00:00 14.8 2 Nordeste 6 Sudoeste 0 922.4 -0.4 92
2019-08-15 04:00:00 15.2 2 Este 10 Este 0 922.6 -0.2 92
2019-08-15 03:00:00 15.5 5 Sudeste 9 Sudeste 0 922.4 -0.5 92
2019-08-15 02:00:00 15.6 4 Sudeste 10 Sudeste 0 922.8 -0.1 92
2019-08-15 01:00:00 15.5 6 Este 9 Este 0 922.8 0.4 90
2019-08-15 00:00:00 15.5 0 Calma 9 Este 0 922.9 1.3 90
2019-08-14 23:00:00 15.1 7 Este 13 Este 0 922.9 1.7 90
2019-08-14 22:00:00 15.6 2 Sur 17 Este 0 922.4 1.2 84
2019-08-14 21:00:00 17 9 Nordeste 23 Este 0 921.6 0.1 71
2019-08-14 20:00:00 20 13 Nordeste 24 Este 0 921.2 -0.2 56
2019-08-14 19:00:00 21.2 15 Nordeste 30 Este 0 921.2 -0.4 48
2019-08-14 18:00:00 22.5 18 Nordeste 27 Este 0 921.5 -0.1 43
2019-08-14 17:00:00 23.1 18 Nordeste 29 Este 0 921.4 -0.5 41
2019-08-14 16:00:00 23.6 19 Nordeste 31 Nordeste 0 921.6 -0.3 43
2019-08-14 15:00:00 24.4 15 Nordeste 26 Este 0 921.6 -0.3 40
2019-08-14 14:00:00 24.3 8 Nordeste 18 Norte 0 921.9 0.1 38
2019-08-14 13:00:00 23.2 5 Nordeste 18 Este 0 921.9 -0.4 38
2019-08-14 12:00:00 22.2 3 Nordeste 13 Nordeste 0 921.9 -0.1 42
2019-08-14 11:00:00 19 3 Este 8 Este 0 921.8 -0.1 53
2019-08-14 10:00:00 15.3 3 Sudeste 8 Este 0 922.3 0.6 70
2019-08-14 09:00:00 11.7 0 Calma 8 Sudeste 0 922 0.9 91
2019-08-14 08:00:00 8.1 3 Oeste 7 Oeste 0 921.9 0.7 93
2019-08-14 07:00:00 8 4 Noroeste 10 Sur 0 921.7 0 93
2019-08-14 06:00:00 8 3 Oeste 9 Noroeste 0 921.1 -1.4 93
2019-08-14 05:00:00 8.7 3 Noroeste 8 Oeste 0 921.2 -1.5 94
2019-08-14 04:00:00 8.7 0 Calma 5 Sudoeste 0 921.7 -1.1 93
2019-08-14 03:00:00 8.4 5 Oeste 8 Oeste 0 922.5 -0.4 94
2019-08-14 02:00:00 9.2 5 Oeste 6 Oeste 0 922.7 -0.3 94
2019-08-14 01:00:00 9.6 3 Oeste 6 Sur 0 922.8 0.1 93
2019-08-14 00:00:00 10.5 2 Sudoeste 5 Noroeste 0 922.9 0.7 91
2019-08-13 23:00:00 11.7 0 Calma 9 Sudeste 0 923 1.2 87
2019-08-13 22:00:00 13.1 3 Sur 8 Oeste 0 922.7 0.8 83
2019-08-13 21:00:00 15.1 7 Nordeste 16 Nordeste 0 922.2 0.1 74
2019-08-13 20:00:00 17.3 6 Nordeste 19 Nordeste 0 921.8 -0.7 63
2019-08-13 19:00:00 18 14 Nordeste 26 Nordeste 0 921.9 -0.7 58
2019-08-13 18:00:00 18.5 10 Nordeste 27 Este 0 922.1 -0.6 56
2019-08-13 17:00:00 20.4 9 Nordeste 24 Nordeste 0 922.5 -0.5 48
2019-08-13 16:00:00 20.2 14 Nordeste 26 Este 0 922.6 -0.7 43
2019-08-13 15:00:00 19.6 8 Nordeste 32 Nordeste 0 922.7 -1.1 43
2019-08-13 14:00:00 17.7 6 Nordeste 21 Este 0 923 -0.8 44
2019-08-13 13:00:00 16.8 3 Nordeste 17 Este 0 923.3 -0.4 46
2019-08-13 12:00:00 15.9 7 Este 19 Este 0 923.8 -0.2 50
2019-08-13 11:00:00 14.5 4 Este 12 Este 0 923.8 0 56
2019-08-13 10:00:00 12.1 0 Calma 6 Sudeste 0 923.7 0.2 72
2019-08-13 09:00:00 8.4 6 Sudoeste 9 Oeste 0 924 0.7 86
2019-08-13 08:00:00 5.9 6 Sudoeste 9 Sudoeste 0 923.8 0.3 91
2019-08-13 07:00:00 5.8 6 Oeste 9 Oeste 0 923.5 -0.3 91
2019-08-13 06:00:00 5.8 5 Oeste 9 Oeste 0 923.3 -0.9 91
2019-08-13 05:00:00 7.3 3 Oeste 9 Oeste 0 923.5 -1.4 90
2019-08-13 04:00:00 8 4 Oeste 13 Noroeste 0 923.8 -1.4 90
2019-08-13 03:00:00 9.2 4 Oeste 6 Oeste 0 924.2 -1 88
2019-08-13 02:00:00 10.3 4 Sudoeste 9 Noroeste 0 924.9 -0.4 84
2019-08-13 01:00:00 11 7 Noroeste 16 Noroeste 0 925.2 0.5 78
2019-08-13 00:00:00 11 3 Noroeste 15 Noroeste 0 925.2 1.3 78
2019-08-12 23:00:00 11.6 9 Noroeste 19 Noroeste 0 925.3 1.4 76
2019-08-12 22:00:00 11.7 6 Norte 18 Norte 0 924.7 1 78
2019-08-12 21:00:00 12.2 7 Nordeste 21 Nordeste 0 923.9 0.4 74
2019-08-12 20:00:00 13.2 9 Norte 31 Norte 0 923.9 0.6 65
2019-08-12 19:00:00 14.1 18 Norte 33 Norte 0 923.7 0.4 62
2019-08-12 18:00:00 15.8 15 Norte 33 Norte 0 923.5 -0.2 57
2019-08-12 17:00:00 16 17 Noroeste 34 Noroeste 0 923.3 -0.8 54
2019-08-12 16:00:00 16.7 13 Norte 35 Norte 0 923.3 -0.4 54
2019-08-12 15:00:00 16.2 13 Norte 31 Noroeste 0 923.7 0.3 53
2019-08-12 14:00:00 16.2 15 Norte 30 Noroeste 0 924.1 1.3 47
2019-08-12 13:00:00 16.1 14 Norte 36 Noroeste 0 923.7 1.2 54
2019-08-12 12:00:00 13.9 14 Noroeste 39 Noroeste 0 923.4 1.5 57
2019-08-12 11:00:00 14.2 19 Norte 37 Noroeste 0 922.8 1.2 57
2019-08-12 10:00:00 13.2 6 Norte 34 Noroeste 0 922.5 1.2 64
2019-08-12 09:00:00 9.9 3 Sur 7 Sudeste 0.1 921.9 0.7 88
2019-08-12 08:00:00 5.8 3 Oeste 8 Sudoeste 0 921.6 0.4 94
2019-08-12 07:00:00 5.4 3 Sudoeste 8 Sur 0 921.3 0.1 93
2019-08-12 06:00:00 6.3 3 Sudeste 6 Oeste 0 921.2 -0.3 93
2019-08-12 05:00:00 7.3 2 Sudoeste 6 Oeste 0 921.2 -0.5 91
2019-08-12 04:00:00 8.1 2 Sudoeste 8 Noroeste 0 921.2 -0.7 90
2019-08-12 03:00:00 9 0 Calma 8 Oeste 0 921.5 -0.4 90
2019-08-12 02:00:00 10 0 Calma 9 Noroeste 0 921.7 -0.1 84
2019-08-12 01:00:00 10.7 6 Noroeste 20 Noroeste 0 921.9 0.5 77
2019-08-12 00:00:00 10.7 7 Noroeste 24 Noroeste 0 921.9 1 78
2019-08-11 23:00:00 10.7 11 Noroeste 27 Noroeste 0.5 921.8 1 82
2019-08-11 22:00:00 11.8 3 Norte 20 Norte 0 921.4 1 76
2019-08-11 21:00:00 11.9 6 Noroeste 26 Noroeste 0 920.9 0.9 77
2019-08-11 20:00:00 12.3 7 Noroeste 21 Noroeste 0 920.8 1 74
2019-08-11 19:00:00 12.7 9 Noroeste 24 Noroeste 0 920.4 0.8 84
2019-08-11 18:00:00 13.4 10 Noroeste 20 Noroeste 2.7 920 0.3 85
2019-08-11 17:00:00 14.1 2 Sudoeste 23 Nordeste 0.1 919.8 0.3 78
2019-08-11 16:00:00 14.4 17 Este 28 Este 0 919.6 -0.5 87
2019-08-11 15:00:00 13.9 7 Oeste 24 Oeste 3.4 919.7 -0.3 90
2019-08-11 14:00:00 15.1 7 Oeste 18 Noroeste 1.6 919.5 -0.1 77
2019-08-11 13:00:00 14 8 Norte 22 Noroeste 0.8 920.1 0.8 76
2019-08-11 12:00:00 15.2 3 Este 9 Sudeste 0 920 1.1 71
2019-08-11 11:00:00 13.8 5 Este 8 Este 0 919.6 1.1 78
2019-08-11 10:00:00 12.6 2 Nordeste 12 Nordeste 0 919.3 0.7 85
2019-08-11 09:00:00 12.3 0 Calma 9 Sur 0 918.9 -0.2 87
2019-08-11 08:00:00 10.4 3 Sudoeste 7 Sur 0.1 918.5 -1.4 92
2019-08-11 07:00:00 10.4 3 Sudoeste 7 Sudoeste 2 918.6 -1.4 92
2019-08-11 06:00:00 10.7 4 Sur 8 Oeste 1.1 919.1 -0.5 89
2019-08-11 05:00:00 11.4 5 Oeste 11 Este 1.3 919.9 -0.9 88
2019-08-11 04:00:00 12.8 6 Sudeste 12 Este 0.2 920 -0.8 78
2019-08-11 03:00:00 14.1 4 Noroeste 18 Oeste 0 919.6 -2 54
2019-08-11 02:00:00 13.7 8 Noroeste 15 Oeste 0 920.8 -1 57
2019-08-11 01:00:00 13.6 3 Sudoeste 5 Sudeste 0 920.8 -1.2 69
2019-08-11 00:00:00 13.9 3 Sudeste 9 Este 0 921.6 0.1 68
2019-08-10 23:00:00 13.7 4 Sudoeste 13 Sudoeste 0 921.8 0.6 69
2019-08-10 22:00:00 13.5 4 Oeste 22 Noroeste 0 922 1 71
2019-08-10 21:00:00 13.8 7 Noroeste 22 Noroeste 0 921.5 0.6 75
2019-08-10 20:00:00 14.9 4 Norte 15 Norte 0 921.2 0.1 72
2019-08-10 19:00:00 15.7 6 Norte 21 Norte 0 921 0 72
2019-08-10 18:00:00 16.3 11 Nordeste 30 Nordeste 0 920.9 -0.4 70
2019-08-10 17:00:00 16.7 17 Nordeste 33 Nordeste 0 921.1 -0.2 65
2019-08-10 16:00:00 20.3 19 Nordeste 55 Nordeste 0 921 -0.5 57
2019-08-10 15:00:00 20.8 13 Nordeste 36 Nordeste 0 921.3 -0.3 50
2019-08-10 14:00:00 20.7 13 Nordeste 29 Nordeste 0 921.3 -0.4 51
2019-08-10 13:00:00 21.1 9 Nordeste 24 Nordeste 0 921.5 0.7 49
2019-08-10 12:00:00 20.2 12 Nordeste 26 Nordeste 0 921.6 0.5 57
2019-08-10 11:00:00 18 11 Nordeste 19 Nordeste 0 921.7 0.5 62
2019-08-10 10:00:00 17 9 Nordeste 19 Este 0 920.8 0.8 74
2019-08-10 09:00:00 14.6 3 Noroeste 8 Noroeste 0 921.1 1.7 90
2019-08-10 08:00:00 14.1 3 Oeste 7 Oeste 0 921.2 1.6 92
2019-08-10 07:00:00 13.6 0 Calma 10 Este 0 920 0.5 92
2019-08-10 06:00:00 14.5 7 Este 14 Este 0 919.4 0.2 92
2019-08-10 05:00:00 14.4 0 Calma 5 Noroeste 0 919.6 0.2 89
2019-08-10 04:00:00 14.2 2 Noroeste 5 Oeste 0 919.5 0.6 89
2019-08-10 03:00:00 14.5 0 Calma 9 Oeste 0 919.2 0.5 86
2019-08-10 02:00:00 14.4 3 Noroeste 9 Este 0 919.4 1.1 82
2019-08-10 01:00:00 15.7 6 Sudeste 10 Sudeste 0 918.9 1.2 82
2019-08-10 00:00:00 15.7 0 Calma 9 Este 0 918.7 1.5 76
2019-08-09 23:00:00 16.5 6 Sudeste 13 Sudoeste 0 918.3 1.9 55
2019-08-09 22:00:00 20.1 11 Sudoeste 19 Sudoeste 0 917.7 1.8 43
2019-08-09 21:00:00 20.8 10 Sudoeste 19 Sudoeste 0 917.2 1.9 40
2019-08-09 20:00:00 22.2 9 Sudoeste 25 Sudoeste 0 916.4 1.4 37
2019-08-09 19:00:00 23 14 Sudoeste 37 Sudoeste 0 915.9 1 34
2019-08-09 18:00:00 25.1 18 Sudoeste 41 Sudoeste 0 915.3 0.3 29
2019-08-09 17:00:00 26.5 22 Sudoeste 43 Oeste 0 915 0.1 26
2019-08-09 16:00:00 26.1 16 Sudoeste 54 Oeste 0 914.9 0.2 25
2019-08-09 15:00:00 26 16 Sur 45 Sur 0 915 0.3 28
2019-08-09 14:00:00 24.1 23 Sudoeste 59 Sur 0 914.9 0.8 39
2019-08-09 13:00:00 23.9 15 Sudoeste 39 Sudoeste 0 914.7 1.3 43
2019-08-09 12:00:00 21.3 22 Sudoeste 53 Sudoeste 0 914.7 1.7 51
2019-08-09 11:00:00 18.9 28 Sudoeste 49 Sudoeste 0.1 914.1 1.5 76
2019-08-09 10:00:00 18.8 10 Sur 49 Sudoeste 0.1 913.4 0.8 89
2019-08-09 09:00:00 19.3 17 Sur 50 Sur 0 913 0.3 82
2019-08-09 08:00:00 20.3 15 Sudoeste 41 Sudoeste 0 912.6 -0.3 72
2019-08-09 07:00:00 20.3 13 Sur 39 Sudoeste 0 912.6 -0.3 70
2019-08-09 06:00:00 20.6 17 Sudoeste 41 Sudoeste 0 912.7 -0.5 67
2019-08-09 05:00:00 21 15 Sudoeste 41 Sudoeste 0 912.9 -0.6 62
2019-08-09 04:00:00 21.8 15 Sur 40 Sur 0 912.9 -0.5 58
2019-08-09 03:00:00 22 19 Sur 42 Sudoeste 0 913.2 -0.4 57
2019-08-09 02:00:00 22.7 21 Sudoeste 51 Sudoeste 0 913.5 0.4 53
2019-08-09 01:00:00 22.7 17 Sudoeste 42 Sudoeste 0 913.4 0.8 52
2019-08-09 00:00:00 23.3 26 Sudoeste 39 Oeste 0 913.6 1.4 52
2019-08-08 23:00:00 23.9 21 Sudoeste 41 Sudoeste 0 913.1 0.9 52
2019-08-08 22:00:00 24.3 23 Sudoeste 46 Sudoeste 0 912.6 0.3 49
2019-08-08 21:00:00 25.2 19 Sudoeste 52 Sudoeste 0 912.2 -0.5 47
2019-08-08 20:00:00 26.2 18 Sudoeste 42 Oeste 0 912.2 -0.4 48
2019-08-08 19:00:00 26.6 19 Sudoeste 38 Sudoeste 0 912.3 -1.8 47
2019-08-08 18:00:00 25.6 21 Sudoeste 59 Sudoeste 0 912.7 -2 49
2019-08-08 17:00:00 26.3 28 Sudoeste 48 Sudoeste 0 912.6 -2.6 49
2019-08-08 16:00:00 23.1 19 Sudoeste 38 Sudoeste 0 914.1 -1.1 59
2019-08-08 15:00:00 22.6 0 Calma 25 Sudoeste 0 914.7 -0.6 65
2019-08-08 14:00:00 21.9 9 Sudoeste 28 Sudoeste 0 915.2 0.2 62
2019-08-08 13:00:00 22.3 14 Sur 38 Sur 0 915.2 0.5 59
2019-08-08 12:00:00 22.8 18 Sudoeste 39 Sudoeste 0 915.3 0.8 58
2019-08-08 11:00:00 21.7 19 Sudoeste 45 Sudoeste 0 915 0.6 62
2019-08-08 10:00:00 20.4 19 Sudoeste 46 Sudoeste 0 914.7 0.7 69
2019-08-08 09:00:00 19.1 15 Sur 38 Sudoeste 0 914.5 0 77
2019-08-08 08:00:00 17.5 18 Sudoeste 36 Sudoeste 0 914.4 -0.1 78
2019-08-08 07:00:00 18.5 17 Sudoeste 39 Sudoeste 0 914 -0.3 71
2019-08-08 06:00:00 18 12 Sudoeste 39 Sur 0 914.5 0.3 72
2019-08-08 05:00:00 18.7 17 Sudoeste 45 Sudoeste 0 914.5 0.1 65
2019-08-08 04:00:00 20.5 17 Sudoeste 40 Oeste 0 914.3 -0.4 58
2019-08-08 03:00:00 18.4 4 Este 26 Sudoeste 0 914.2 -0.5 67
2019-08-08 02:00:00 19.3 14 Sur 25 Sudoeste 0 914.4 -0.9 65
2019-08-08 01:00:00 18.3 9 Sudeste 22 Sudoeste 0 914.7 0.1 66
2019-08-08 00:00:00 19 8 Sudoeste 26 Sudoeste 0 914.7 0.2 62
2019-08-07 23:00:00 19.8 17 Sudoeste 32 Sudoeste 0 915.3 0.7 58
2019-08-07 22:00:00 20.3 10 Sudoeste 24 Sudoeste 0 914.6 -0.1 54
2019-08-07 21:00:00 20.3 11 Sudoeste 29 Sudoeste 0 914.5 -0.2 53
2019-08-07 20:00:00 20.9 15 Sudoeste 33 Sudoeste 0 914.6 0.2 48
2019-08-07 19:00:00 21.7 18 Sudoeste 44 Sudoeste 0 914.7 0.5 43
2019-08-07 18:00:00 21.9 17 Sudoeste 32 Sudoeste 0 914.7 0.2 43
2019-08-07 17:00:00 24 15 Sudoeste 29 Sudoeste 0 914.4 -0.5 41
2019-08-07 16:00:00 24.4 12 Sudoeste 26 Sudeste 0 914.2 -1.2 38
2019-08-07 15:00:00 24.7 15 Sudoeste 26 Sudoeste 0 914.5 -1 38
2019-08-07 14:00:00 24.5 14 Sur 25 Sudeste 0 914.9 -0.7 39
2019-08-07 13:00:00 22.7 12 Este 21 Este 0 915.4 -0.2 44
2019-08-07 12:00:00 22.1 6 Este 17 Este 0 915.5 0.3 47
2019-08-07 11:00:00 20.5 4 Este 10 Este 0 915.6 0.5 56
2019-08-07 10:00:00 18.1 0 Calma 6 Sudeste 0 915.6 0.9 72
2019-08-07 09:00:00 16.1 0 Calma 4 Sudeste 0 915.2 0.8 86
2019-08-07 08:00:00 13.4 0 Calma 5 Noroeste 0 915.1 1 93
2019-08-07 07:00:00 14 5 Sudoeste 6 Sudoeste 0 914.7 0.4 93
2019-08-07 06:00:00 14.5 0 Calma 5 Sudoeste 0 914.4 0 93
2019-08-07 05:00:00 15 0 Calma 8 Oeste 0 914.1 -0.9 93
2019-08-07 04:00:00 14.8 0 Calma 6 Noroeste 0 914.3 -1.5 93
2019-08-07 03:00:00 15 0 Calma 7 Sudoeste 0 914.4 -1.8 93
2019-08-07 02:00:00 14.9 4 Oeste 7 Noroeste 0 915 -2 93
2019-08-07 01:00:00 15.4 0 Calma 5 Sudeste 0 915.8 0 92
2019-08-07 00:00:00 15.5 4 Nordeste 11 Este 0.1 916.2 0.1 92
2019-08-06 23:00:00 16.1 3 Sudeste 12 Oeste 0 917 1.5 88
2019-08-06 22:00:00 16.1 6 Noroeste 20 Noroeste 0 915.8 0.3 89
2019-08-06 21:00:00 16.7 4 Noroeste 20 Nordeste 0 916.1 1 86
2019-08-06 20:00:00 17.6 10 Norte 22 Norte 0 915.5 0.5 85
2019-08-06 19:00:00 18.9 10 Noroeste 28 Nordeste 0 915.5 0.6 78
2019-08-06 18:00:00 21.1 7 Nordeste 28 Este 0 915.1 0.3 68
2019-08-06 17:00:00 22.5 14 Nordeste 32 Nordeste 0 915 -0.5 63
2019-08-06 16:00:00 24.9 16 Nordeste 32 Norte 0 914.9 -0.7 53
2019-08-06 15:00:00 25.2 17 Nordeste 30 Este 0 914.8 -1.1 47
2019-08-06 14:00:00 25.7 13 Nordeste 23 Este 0 915.5 -0.6 40
2019-08-06 13:00:00 25.2 6 Nordeste 17 Este 0 915.6 -0.5 37
2019-08-06 12:00:00 23.4 5 Nordeste 17 Este 0 915.9 -0.5 40
2019-08-06 11:00:00 21.5 5 Nordeste 11 Este 0 916.1 -0.1 51
2019-08-06 10:00:00 17.5 0 Calma 5 Sudoeste 0 916.1 0 69
2019-08-06 09:00:00 14.4 3 Sudoeste 9 Sudoeste 0 916.4 0 86
2019-08-06 08:00:00 11.4 5 Sudoeste 8 Oeste 0 916.2 -0.6 93
2019-08-06 07:00:00 9.4 0 Calma 5 Noroeste 0 916.1 -0.8 93
2019-08-06 06:00:00 10.3 4 Sudoeste 6 Sur 0 916.4 -1 93
2019-08-06 05:00:00 10.7 3 Sudoeste 6 Oeste 0 916.8 -1 93
2019-08-06 04:00:00 10.9 2 Sur 5 Sudoeste 0 916.9 -1.2 93
2019-08-06 03:00:00 10.7 2 Sudoeste 4 Sur 0 917.4 -0.8 93
2019-08-06 02:00:00 11.4 0 Calma 5 Oeste 0 917.8 -0.4 93
2019-08-06 01:00:00 11.8 4 Oeste 5 Oeste 0 918.1 0.5 92
2019-08-06 00:00:00 13.4 0 Calma 7 Sudeste 0 918.2 1 91
2019-08-05 23:00:00 14.2 0 Calma 6 Este 0 918.2 1.2 88
2019-08-05 22:00:00 16.3 0 Calma 9 Nordeste 0 917.6 0.7 83
2019-08-05 21:00:00 18.4 6 Nordeste 16 Nordeste 0 917.2 0.3 73
2019-08-05 20:00:00 20.4 9 Nordeste 27 Nordeste 0 917 -0.1 68
2019-08-05 19:00:00 22 12 Nordeste 28 Este 0 916.9 -0.2 62
2019-08-05 18:00:00 21.7 15 Nordeste 29 Este 0 916.9 -0.5 62
2019-08-05 17:00:00 22.7 13 Nordeste 30 Nordeste 0 917.1 -0.5 58
2019-08-05 16:00:00 24.1 17 Nordeste 33 Este 0 917.1 -1 53
2019-08-05 15:00:00 24.7 16 Nordeste 28 Nordeste 0 917.4 -0.8 50
2019-08-05 14:00:00 23.8 10 Este 18 Este 0 917.6 -1 48
2019-08-05 13:00:00 22.7 7 Nordeste 18 Norte 0 918.1 -0.6 51
2019-08-05 12:00:00 21.2 8 Este 18 Este 0 918.2 -0.8 62
2019-08-05 11:00:00 19.7 6 Este 14 Este 0 918.6 -0.2 69
2019-08-05 10:00:00 16.8 4 Nordeste 14 Nordeste 0 918.7 0.1 78
2019-08-05 09:00:00 13.6 0 Calma 5 Noroeste 0.1 919 0.6 93
2019-08-05 08:00:00 9.9 2 Oeste 5 Oeste 0 918.8 0 93
2019-08-05 07:00:00 9.8 0 Calma 8 Oeste 0 918.6 -0.2 93
2019-08-05 06:00:00 9.5 2 Oeste 5 Oeste 0 918.4 -0.8 93
2019-08-05 05:00:00 9.8 0 Calma 4 Sur 0 918.8 -0.9 93
2019-08-05 04:00:00 12 0 Calma 4 Sur 0 918.8 -0.9 93
2019-08-05 03:00:00 12.8 3 Oeste 5 Noroeste 0 919.2 -0.6 93
2019-08-05 02:00:00 13.8 0 Calma 4 Este 0 919.7 0 93
2019-08-05 01:00:00 13.4 0 Calma 4 Oeste 0 919.7 0.2 93
2019-08-05 00:00:00 14.1 0 Calma 10 Este 0 919.8 0.8 93
2019-08-04 23:00:00 14.9 7 Sudeste 15 Este 0 919.7 1.4 92
2019-08-04 22:00:00 15.4 11 Este 15 Este 0 919.5 1.4 91
2019-08-04 21:00:00 16.1 9 Nordeste 22 Nordeste 0 919 1.5 88
2019-08-04 20:00:00 16.7 10 Nordeste 23 Nordeste 0 918.3 0.8 85
2019-08-04 19:00:00 17.3 10 Nordeste 26 Nordeste 0 918.1 0.6 85
2019-08-04 18:00:00 20.3 14 Nordeste 26 Este 0 917.5 0.2 77
2019-08-04 17:00:00 21.1 16 Nordeste 32 Este 0 917.5 -0.2 71
2019-08-04 16:00:00 22.6 18 Nordeste 30 Este 0 917.5 -0.4 61
2019-08-04 15:00:00 24.3 14 Nordeste 27 Nordeste 0 917.3 -0.9 51
2019-08-04 14:00:00 24.1 10 Nordeste 22 Nordeste 0 917.7 -0.5 50
2019-08-04 13:00:00 21.7 4 Nordeste 14 Este 0 917.9 -1.1 51
2019-08-04 12:00:00 20.3 3 Este 11 Este 0 918.2 -0.6 60
2019-08-04 11:00:00 17.1 4 Sudeste 11 Este 0 918.2 0.1 72
2019-08-04 10:00:00 15.1 2 Sudoeste 8 Oeste 0 919 1.2 90
2019-08-04 09:00:00 13.3 6 Oeste 11 Oeste 0 918.8 1 93
2019-08-04 08:00:00 12.7 0 Calma 5 Noroeste 0 918.1 0.4 93
2019-08-04 07:00:00 11.4 3 Noroeste 5 Oeste 0 917.8 0 93
2019-08-04 06:00:00 10.4 2 Oeste 4 Norte 0 917.8 -0.3 93
2019-08-04 05:00:00 10.9 0 Calma 5 Oeste 0 917.7 -0.4 93
2019-08-04 04:00:00 11.8 2 Noroeste 6 Sudoeste 0 917.8 -0.3 93
2019-08-04 03:00:00 11.6 3 Sudoeste 5 Sudoeste 0 918.1 -0.1 93
2019-08-04 02:00:00 11.8 2 Sudoeste 5 Sudoeste 0 918.1 -0.1 93
2019-08-04 01:00:00 12.8 0 Calma 5 Sur 0 918.1 0.5 93
2019-08-04 00:00:00 14 2 Sudeste 4 Sur 0 918.2 1 92
2019-08-03 23:00:00 15.7 0 Calma 8 Nordeste 0 918.2 1.4 91
2019-08-03 22:00:00 16.6 4 Este 13 Nordeste 0 917.6 0.9 90
2019-08-03 21:00:00 18.1 7 Nordeste 19 Este 0 917.2 0.7 86
2019-08-03 20:00:00 20.3 9 Nordeste 21 Este 0 916.8 0.5 78
2019-08-03 19:00:00 22.2 9 Nordeste 18 Nordeste 0 916.7 0.4 70
2019-08-03 18:00:00 24.1 9 Nordeste 29 Este 0 916.5 0 62
2019-08-03 17:00:00 25.2 17 Nordeste 28 Nordeste 0 916.3 -0.7 58
2019-08-03 16:00:00 26.9 14 Nordeste 30 Nordeste 0 916.3 -0.9 48
2019-08-03 15:00:00 28 13 Nordeste 26 Nordeste 0 916.5 -0.9 37
2019-08-03 14:00:00 28.5 11 Nordeste 22 Nordeste 0 917 -0.4 31
2019-08-03 13:00:00 28 9 Nordeste 18 Nordeste 0 917.2 -0.5 30
2019-08-03 12:00:00 25.7 5 Nordeste 11 Este 0 917.4 -0.3 34
2019-08-03 11:00:00 22.7 3 Nordeste 8 Este 0 917.4 -0.4 41
2019-08-03 10:00:00 18.5 3 Nordeste 6 Sur 0 917.7 0 51
2019-08-03 09:00:00 14 0 Calma 5 Sur 0 917.7 -0.2 77
2019-08-03 08:00:00 10.3 0 Calma 4 Sur 0 917.8 -0.3 86
2019-08-03 07:00:00 10.2 2 Nordeste 8 Sur 0 917.7 -1.1 83
2019-08-03 06:00:00 11.5 6 Sur 12 Sudoeste 0 917.9 -1.2 83
2019-08-03 05:00:00 10.6 7 Sudoeste 14 Sudoeste 0 918.1 -0.9 91
2019-08-03 04:00:00 10.9 5 Sudoeste 10 Sudoeste 0 918.8 -0.3 93
2019-08-03 03:00:00 12.9 2 Oeste 4 Oeste 0 919.1 -0.3 93
2019-08-03 02:00:00 12.4 0 Calma 5 Sudoeste 0 919 -0.6 93
2019-08-03 01:00:00 14.2 4 Sudoeste 9 Oeste 0 919.1 0 93
2019-08-03 00:00:00 15.1 4 Sudoeste 9 Oeste 0 919.4 0.6 93
2019-08-02 23:00:00 15.6 0 Calma 4 Este 0 919.6 1.1 92
2019-08-02 22:00:00 17.1 0 Calma 10 Este 0 919.1 0.7 87
2019-08-02 21:00:00 19 10 Este 15 Este 0 918.8 -0.1 78
2019-08-02 20:00:00 22.2 6 Nordeste 20 Este 0 918.5 -0.5 63
2019-08-02 19:00:00 23.1 14 Nordeste 22 Este 0 918.4 -1 58
2019-08-02 18:00:00 24.2 13 Nordeste 24 Este 0 918.9 -0.8 54
2019-08-02 17:00:00 24.9 13 Nordeste 22 Nordeste 0 919 -0.7 51
2019-08-02 16:00:00 24.4 9 Nordeste 20 Este 0 919.4 -0.6 46
2019-08-02 15:00:00 23.8 9 Nordeste 20 Este 0 919.7 -0.3 43
2019-08-02 14:00:00 22.5 9 Este 16 Este 0 919.7 -0.4 43
2019-08-02 13:00:00 21.1 5 Este 14 Este 0 920 0 49
2019-08-02 12:00:00 18.7 3 Este 8 Nordeste 0 920 0.3 58
2019-08-02 11:00:00 15.4 2 Oeste 10 Noroeste 0 920.1 0.8 76
2019-08-02 10:00:00 13.7 5 Oeste 12 Oeste 0 920 0.7 86
2019-08-02 09:00:00 12 11 Oeste 14 Oeste 0 919.7 0.5 93
2019-08-02 08:00:00 11.7 6 Oeste 9 Oeste 0 919.3 0 93
2019-08-02 07:00:00 11 7 Oeste 10 Oeste 0 919.3 -0.1 93
2019-08-02 06:00:00 10.8 5 Oeste 8 Oeste 0 919.2 -0.5 93
2019-08-02 05:00:00 11.7 2 Sudoeste 5 Sudoeste 0 919.3 -0.6 93
2019-08-02 04:00:00 11.8 3 Oeste 5 Oeste 0 919.4 -0.7 93
2019-08-02 03:00:00 11.7 2 Oeste 7 Este 0 919.7 -0.3 93
2019-08-02 02:00:00 12.5 4 Este 12 Este 0 919.9 -0.1 93
2019-08-02 01:00:00 13.1 8 Este 12 Este 0 920.1 0.9 93
2019-08-02 00:00:00 13.8 7 Nordeste 17 Este 0 920 1.2 93
2019-08-01 23:00:00 14.1 5 Nordeste 17 Nordeste 0 920 1.9 91
2019-08-01 22:00:00 14.5 5 Nordeste 16 Nordeste 0 919.2 1.3 90
2019-08-01 21:00:00 15.8 5 Nordeste 22 Este 0 918.8 1.3 83
2019-08-01 20:00:00 16 15 Nordeste 24 Este 0 918.1 0.8 83
2019-08-01 19:00:00 17.8 10 Nordeste 21 Nordeste 0 917.9 0.7 76
2019-08-01 18:00:00 19.1 6 Norte 22 Norte 0 917.5 0.3 67
2019-08-01 17:00:00 19.2 8 Norte 23 Nordeste 0 917.3 0 71
2019-08-01 16:00:00 19.2 9 Nordeste 21 Este 0 917.2 -0.1 69
2019-08-01 15:00:00 18.6 13 Nordeste 19 Nordeste 0 917.2 0 71
2019-08-01 14:00:00 17.9 12 Nordeste 19 Nordeste 0 917.3 0.1 74
2019-08-01 13:00:00 17.1 10 Nordeste 18 Nordeste 0 917.3 0.1 76
2019-08-01 12:00:00 16.7 5 Nordeste 13 Nordeste 0 917.2 0.1 76
2019-08-01 11:00:00 16 3 Nordeste 10 Nordeste 0 917.2 0.3 78
2019-08-01 10:00:00 14.5 5 Noroeste 14 Oeste 0 917.2 0.9 78
2019-08-01 09:00:00 12 7 Oeste 10 Sudoeste 0 917.1 0.1 90
2019-08-01 08:00:00 10.4 4 Sudoeste 7 Noroeste 0 916.9 -0.2 93
2019-08-01 07:00:00 10.1 2 Sudoeste 9 Oeste 0 916.3 -0.9 93
2019-08-01 06:00:00 10.6 4 Nordeste 10 Oeste 0 917 -1.1 94
2019-08-01 05:00:00 10.4 3 Oeste 8 Oeste 0 917.1 -1.2 94
2019-08-01 04:00:00 10 0 Calma 7 Oeste 0 917.2 -1.5 94
2019-08-01 03:00:00 10.7 0 Calma 4 Este 0 918.1 -1 93
2019-08-01 02:00:00 10.7 0 Calma 6 Nordeste 0 918.3 -0.9 93
2019-08-01 01:00:00 12.2 4 Nordeste 8 Nordeste 0 918.7 -0.1 92
2019-08-01 00:00:00 12.7 0 Calma 8 Nordeste 0 919.1 0.6 91
2019-07-31 23:00:00 13.5 4 Nordeste 11 Nordeste 0 919.2 1.4 89
2019-07-31 22:00:00 14.4 6 Nordeste 16 Nordeste 0 918.8 0.6 85
2019-07-31 21:00:00 15 7 Nordeste 18 Nordeste 0 918.5 0.1 83
2019-07-31 20:00:00 16.1 9 Nordeste 21 Nordeste 0 917.8 -0.7 77
2019-07-31 19:00:00 17.5 12 Nordeste 22 Nordeste 0 918.2 -0.7 68
2019-07-31 18:00:00 18.7 12 Nordeste 23 Nordeste 0 918.4 -1 58
2019-07-31 17:00:00 19.7 11 Nordeste 22 Este 0 918.5 -1.3 54
2019-07-31 16:00:00 20.5 8 Nordeste 25 Nordeste 0 918.9 -1.2 47
2019-07-31 15:00:00 20.3 11 Nordeste 24 Nordeste 0 919.4 -1.2 51
2019-07-31 14:00:00 19.6 10 Nordeste 20 Este 0 919.8 -0.8 51
2019-07-31 13:00:00 17.6 5 Este 16 Sudeste 0 920.1 -0.9 47
2019-07-31 12:00:00 16.2 5 Este 16 Este 0 920.6 -0.4 52
2019-07-31 11:00:00 15.5 8 Nordeste 17 Este 0 920.6 -0.5 56
2019-07-31 10:00:00 13.9 6 Este 16 Este 0 921 -0.2 66
2019-07-31 09:00:00 11.6 0 Calma 7 Noroeste 0 921 0 83
2019-07-31 08:00:00 10.2 0 Calma 6 Oeste 0 921.1 -0.2 91
2019-07-31 07:00:00 10.5 4 Sudoeste 5 Sudoeste 0 921.2 -0.3 90
2019-07-31 06:00:00 10.8 0 Calma 5 Noroeste 0 921 -0.8 87
2019-07-31 05:00:00 11 0 Calma 5 Este 0 921.3 -0.8 85
2019-07-31 04:00:00 11.3 3 Norte 11 Noroeste 0 921.5 -0.7 83
2019-07-31 03:00:00 11.6 2 Noroeste 12 Noroeste 0 921.8 -0.7 86
2019-07-31 02:00:00 11.7 5 Norte 11 Norte 0 922.1 -0.5 85
2019-07-31 01:00:00 11.8 4 Norte 13 Norte 0 922.2 0.4 84
2019-07-31 00:00:00 11.7 5 Nordeste 13 Nordeste 0 922.5 0.7 84
2019-07-30 23:00:00 11.8 7 Nordeste 13 Nordeste 0 922.6 1 85
2019-07-30 22:00:00 12 6 Nordeste 18 Nordeste 0 921.8 0.1 83
2019-07-30 21:00:00 12.6 6 Norte 21 Noroeste 0 921.8 -0.1 78
2019-07-30 20:00:00 12.7 11 Noroeste 21 Noroeste 0 921.6 -0.2 75
2019-07-30 19:00:00 13.8 16 Noroeste 23 Noroeste 0 921.7 0.2 69
2019-07-30 18:00:00 14.3 8 Norte 24 Nordeste 0 921.9 0.4 68
2019-07-30 17:00:00 14.5 12 Nordeste 25 Norte 0 921.8 0.1 66
2019-07-30 16:00:00 15.4 8 Norte 26 Nordeste 0 921.5 -0.1 61
2019-07-30 15:00:00 17.2 6 Norte 22 Norte 0 921.5 0.1 53
2019-07-30 14:00:00 17.5 8 Norte 22 Norte 0 921.7 0.8 50
2019-07-30 13:00:00 16.4 6 Norte 23 Noroeste 0 921.6 0.6 48
2019-07-30 12:00:00 15.3 13 Norte 25 Norte 0 921.4 0.9 51
2019-07-30 11:00:00 15 6 Norte 18 Noroeste 0 920.9 0.8 52
2019-07-30 10:00:00 14.8 7 Nordeste 23 Noroeste 0 921 1.6 55
2019-07-30 09:00:00 12.7 9 Noroeste 18 Noroeste 0 920.5 1.3 61
2019-07-30 08:00:00 11.4 3 Este 5 Sudeste 0 920.1 1 85
2019-07-30 07:00:00 11 3 Nordeste 10 Este 0 919.4 0.6 86
2019-07-30 06:00:00 11.7 5 Este 10 Este 0 919.2 0.5 84
2019-07-30 05:00:00 11.9 3 Oeste 11 Este 0 919.1 0.6 86
2019-07-30 04:00:00 12 5 Nordeste 18 Nordeste 0 918.8 0.3 89
2019-07-30 03:00:00 11.9 6 Nordeste 19 Nordeste 0 918.7 0.6 91
2019-07-30 02:00:00 12.1 10 Nordeste 19 Nordeste 0 918.5 0.8 93
2019-07-30 01:00:00 12.3 9 Nordeste 20 Nordeste 0 918.5 1.5 93
2019-07-30 00:00:00 12.5 9 Nordeste 20 Nordeste 0 918.1 1.6 93
2019-07-29 23:00:00 12.9 10 Nordeste 21 Este 0 917.7 1.7 92
2019-07-29 22:00:00 13.5 8 Nordeste 18 Norte 0 917 1.4 88
2019-07-29 21:00:00 13.9 9 Nordeste 19 Nordeste 0 916.5 1.3 88
2019-07-29 20:00:00 15 7 Norte 26 Nordeste 0 916 1.4 78
2019-07-29 19:00:00 14.8 14 Nordeste 30 Nordeste 0 915.6 1.6 87
2019-07-29 18:00:00 16.1 13 Nordeste 30 Nordeste 0 915.2 1.7 82
2019-07-29 17:00:00 17.6 18 Nordeste 31 Nordeste 0 914.6 1.4 74
2019-07-29 16:00:00 18.3 17 Nordeste 33 Este 0 914 0.8 67
2019-07-29 15:00:00 21 13 Nordeste 28 Nordeste 0 913.5 0.5 59
2019-07-29 14:00:00 21.4 12 Nordeste 29 Nordeste 0 913.2 -0.1 56
2019-07-29 13:00:00 21.6 9 Nordeste 27 Este 0 913.2 0 51
2019-07-29 12:00:00 20.8 12 Nordeste 26 Este 0 913 -0.4 50
2019-07-29 11:00:00 19.6 9 Nordeste 17 Nordeste 0 913.3 0.5 54
2019-07-29 10:00:00 17.2 3 Nordeste 7 Este 0 913.2 0.7 61
2019-07-29 09:00:00 13.6 0 Calma 5 Noroeste 0 913.4 0.9 76
2019-07-29 08:00:00 9.1 5 Noroeste 11 Oeste 0 912.8 0.4 91
2019-07-29 07:00:00 7.7 3 Oeste 9 Sudoeste 0 912.5 0.1 91
2019-07-29 06:00:00 8.8 3 Sudoeste 7 Oeste 0 912.5 0 93
2019-07-29 05:00:00 9.5 2 Sudoeste 6 Sudoeste 0 912.4 -0.1 92
2019-07-29 04:00:00 9.6 2 Oeste 12 Oeste 0 912.4 -0.3 93
2019-07-29 03:00:00 10.5 0 Calma 12 Noroeste 0 912.5 -0.4 93
2019-07-29 02:00:00 10.5 4 Oeste 11 Oeste 0 912.5 -0.5 93
2019-07-29 01:00:00 11.2 5 Oeste 9 Oeste 0 912.7 -0.1 92
2019-07-29 00:00:00 13.2 0 Calma 6 Sur 0 912.9 0.4 91
2019-07-28 23:00:00 13.7 3 Oeste 6 Oeste 0 913 0.4 91
2019-07-28 22:00:00 15.8 3 Sudeste 10 Este 0 912.8 0.4 84
2019-07-28 21:00:00 18 7 Nordeste 19 Nordeste 0 912.5 -0.2 73
2019-07-28 20:00:00 20 10 Nordeste 22 Este 0 912.6 -0.6 65
2019-07-28 19:00:00 20.6 15 Nordeste 25 Nordeste 0 912.4 -1.4 56
2019-07-28 18:00:00 21.6 13 Nordeste 26 Este 0 912.7 -1.5 49
2019-07-28 17:00:00 21.4 12 Nordeste 23 Este 0 913.2 -1.3 48
2019-07-28 16:00:00 20.8 5 Sudeste 24 Sudeste 0 913.8 -1.1 39
2019-07-28 15:00:00 21 4 Sudoeste 25 Sur 0 914.2 -1 40
2019-07-28 14:00:00 20.5 11 Sur 26 Sur 0 914.5 -1.1 42
2019-07-28 13:00:00 19 12 Sur 24 Sudeste 0 914.9 -0.9 47
2019-07-28 12:00:00 17.1 12 Sudeste 22 Sudeste 0 915.2 -0.4 54
2019-07-28 11:00:00 15.3 9 Sudeste 19 Sudeste 0 915.6 0.1 58
2019-07-28 10:00:00 14.2 2 Nordeste 12 Sudeste 0 915.8 0.3 67
2019-07-28 09:00:00 11.5 0 Calma 6 Noroeste 0 915.6 0.6 85
2019-07-28 08:00:00 8.5 3 Oeste 10 Sudoeste 0 915.5 0.2 93
2019-07-28 07:00:00 7.9 4 Sudoeste 8 Oeste 0 915.5 0 92
2019-07-28 06:00:00 8.7 4 Sur 12 Sur 0 915 -0.6 88
2019-07-28 05:00:00 10.2 0 Calma 16 Norte 0 915.3 -0.4 88
2019-07-28 04:00:00 10.6 2 Sudoeste 20 Norte 0 915.5 -0.4 78
2019-07-28 03:00:00 10.5 4 Sur 27 Norte 0 915.6 -0.4 78
2019-07-28 02:00:00 11.8 7 Nordeste 16 Norte 0 915.7 -0.1 78
2019-07-28 01:00:00 12 2 Sudeste 22 Norte 0 915.9 0.7 83
2019-07-28 00:00:00 11.7 14 Noroeste 23 Noroeste 0 916 1.5 86
2019-07-27 23:00:00 11.7 10 Norte 24 Noroeste 0 915.8 1.5 86
2019-07-26 12:00:00 14.1 4 Noroeste 26 Noroeste 3.2 917.3 0.9 88
2019-07-26 11:00:00 14.7 8 Norte 23 Noroeste 0 916.9 0.6 83
2019-07-26 10:00:00 15 7 Nordeste 17 Nordeste 0 916.6 0.2 91
2019-07-26 09:00:00 14.9 2 Nordeste 20 Norte 0 916.4 -0.1 92
2019-07-26 08:00:00 14.9 3 Norte 10 Nordeste 0 916.3 0 92
2019-07-26 07:00:00 15.1 6 Nordeste 15 Nordeste 0 916.4 -0.4 93
2019-07-26 06:00:00 15.3 11 Este 17 Nordeste 0 916.5 -0.5 93
2019-07-26 05:00:00 15.7 8 Nordeste 23 Nordeste 0.1 916.3 -0.8 93
2019-07-26 04:00:00 15.8 10 Nordeste 23 Nordeste 0.2 916.8 -0.8 93
2019-07-26 03:00:00 16.4 2 Noroeste 8 Noroeste 0 917 -0.7 92
2019-07-26 02:00:00 16.3 5 Norte 14 Nordeste 0 917.1 -0.6 92
2019-07-26 01:00:00 16.8 5 Nordeste 11 Nordeste 0 917.6 0.3 90
2019-07-26 00:00:00 16.3 0 Calma 11 Oeste 0 917.7 0.8 86
2019-07-25 23:00:00 17 5 Este 15 Noroeste 0 917.7 2 81
2019-07-25 22:00:00 17.6 11 Noroeste 25 Noroeste 0 917.3 2.5 78
2019-07-25 21:00:00 19.1 6 Norte 24 Norte 0 916.9 2.5 70
2019-07-25 20:00:00 20.8 5 Norte 22 Norte 0 915.7 1.2 67
2019-07-25 19:00:00 23.5 9 Nordeste 29 Nordeste 0 914.8 0.1 66
2019-07-25 18:00:00 23.6 17 Nordeste 30 Nordeste 0 914.4 -0.6 69
2019-07-25 17:00:00 28.8 5 Este 43 Sudeste 0 914.5 -0.8 31
2019-07-25 16:00:00 29.9 14 Sur 40 Sudoeste 0 914.7 -0.7 24
2019-07-25 15:00:00 30.4 13 Sur 36 Sur 0 915 -0.4 26
2019-07-25 14:00:00 29.4 18 Sur 34 Sur 0 915.3 0 27
2019-07-25 13:00:00 29.4 13 Sur 31 Sur 0 915.4 -0.2 30
2019-07-25 12:00:00 27.4 12 Sur 31 Sur 0 915.4 0 35
2019-07-25 11:00:00 26 18 Sur 26 Sudeste 0 915.3 0 39
2019-07-25 10:00:00 23.6 9 Sudeste 16 Sudeste 0 915.6 0.6 47
2019-07-25 09:00:00 20.6 3 Sudeste 10 Este 0 915.4 0.6 62
2019-07-25 08:00:00 15 0 Calma 8 Oeste 0 915.3 0.2 83
2019-07-25 07:00:00 12.8 5 Noroeste 7 Sudoeste 0 915 0.4 86
2019-07-25 06:00:00 14.7 0 Calma 8 Oeste 0 914.8 -0.2 82
2019-07-25 05:00:00 15.1 4 Norte 6 Norte 0 915.1 -0.4 76
2019-07-25 04:00:00 16.3 0 Calma 10 Sudoeste 0 914.6 -1.1 68
2019-07-25 03:00:00 17.8 8 Sudoeste 12 Sudoeste 0 915 -0.9 61
2019-07-25 02:00:00 18.3 6 Sudoeste 14 Oeste 0 915.5 -0.2 60
2019-07-25 01:00:00 18.4 5 Sudoeste 12 Sudoeste 0 915.7 0.9 62
2019-07-25 00:00:00 20 5 Sudoeste 8 Sudoeste 0 915.9 1 58
2019-07-24 23:00:00 22.2 0 Calma 8 Noroeste 0 915.7 0.8 49
2019-07-24 22:00:00 25.2 2 Noroeste 11 Sudoeste 0 914.8 -0.1 37
2019-07-24 21:00:00 29.7 6 Sudoeste 21 Sudoeste 0 914.9 -0.6 29
2019-07-24 20:00:00 31.7 9 Sudoeste 23 Sudoeste 0 914.9 -1 24
2019-07-24 19:00:00 32.2 17 Sudoeste 32 Sudoeste 0 914.9 -1.4 24
2019-07-24 18:00:00 32.2 16 Sudoeste 36 Sudoeste 0 915.5 -1.2 24
2019-07-24 17:00:00 32.1 20 Sudoeste 39 Sur 0 915.9 -1.6 24
2019-07-24 16:00:00 32 13 Sur 42 Sur 0 916.3 -1.5 25
2019-07-24 15:00:00 30.6 17 Sur 34 Sur 0 916.7 -1.5 27
2019-07-24 14:00:00 30.2 14 Sur 31 Sudoeste 0 917.5 -0.8 30
2019-07-24 13:00:00 28.9 12 Sur 23 Sur 0 917.8 -0.7 33
2019-07-24 12:00:00 27.3 9 Sur 21 Sur 0 918.2 -0.2 36
2019-07-24 11:00:00 26.2 9 Sur 19 Sudeste 0 918.3 0.1 35
2019-07-24 10:00:00 22.7 7 Este 13 Este 0 918.5 0.3 58
2019-07-24 09:00:00 18.3 0 Calma 5 Oeste 0 918.4 0.3 76
2019-07-24 08:00:00 14.7 4 Norte 8 Oeste 0 918.2 0.1 86
2019-07-24 07:00:00 13.7 3 Sudoeste 9 Oeste 0 918.2 -0.4 87
2019-07-24 06:00:00 14.3 5 Oeste 8 Sudoeste 0 918.1 -0.4 78
2019-07-24 05:00:00 16.1 6 Oeste 10 Sudoeste 0 918.1 -0.9 76
2019-07-24 04:00:00 18.2 2 Noroeste 22 Este 0 918.6 -2.3 66
2019-07-24 03:00:00 18.2 8 Sur 12 Sur 0 918.5 -1.3 72
2019-07-24 02:00:00 19.3 6 Norte 16 Sur 0 919 0.1 68
2019-07-24 01:00:00 20.4 5 Sudeste 27 Sudeste 0 920.9 -0.4 64
2019-07-24 00:00:00 18.3 6 Este 26 Noroeste 0 919.8 0.8 83
2019-07-23 23:00:00 18.5 12 Oeste 22 Este 0.2 918.9 0 91
2019-07-23 22:00:00 19 12 Sudeste 23 Sudeste 0 921.3 4.1 87
2019-07-23 21:00:00 22.9 7 Este 42 Este 0 919 1.3 59
2019-07-23 20:00:00 23.3 23 Este 58 Este 0 918.9 0.8 65
2019-07-23 19:00:00 31.9 12 Sudoeste 23 Sudoeste 0 917.2 -1.2 24
2019-07-23 18:00:00 32.2 10 Sur 27 Sudoeste 0 917.7 -0.9 24
2019-07-23 17:00:00 32 15 Sudoeste 35 Sur 0 918.1 -0.6 26
2019-07-23 16:00:00 31.5 15 Sur 43 Sudeste 0 918.4 -0.1 26
2019-07-23 15:00:00 30.4 19 Sur 48 Sudeste 0 918.6 1.1 28
2019-07-23 14:00:00 30.3 21 Sur 38 Sur 0 918.7 0.1 28
2019-07-23 13:00:00 29.6 12 Sur 35 Sur 0 918.5 -1.1 28
2019-07-23 12:00:00 29 14 Sur 30 Sur 0 917.5 -2.7 28
2019-07-23 11:00:00 25 19 Sudoeste 51 Sur 0 918.6 -0.9 37
2019-07-23 10:00:00 24.3 32 Sudoeste 61 Sudoeste 0 919.6 0 39
2019-07-23 09:00:00 23.5 24 Sur 45 Sur 0 920.2 1 38
2019-07-23 08:00:00 14.4 0 Calma 8 Oeste 0 919.5 0.2 92
2019-07-23 07:00:00 12.3 3 Oeste 6 Sudoeste 0 919.6 -0.6 91
2019-07-23 06:00:00 13.3 4 Sudoeste 6 Noroeste 0 919.2 -1.1 91
2019-07-23 05:00:00 14.3 4 Noroeste 7 Sur 0 919.3 -1.8 87
2019-07-23 04:00:00 15.2 5 Sudoeste 10 Sudoeste 0 920.2 -1.2 85
2019-07-23 03:00:00 14.4 6 Noroeste 9 Oeste 0 920.3 -1.2 85
2019-07-23 02:00:00 16.3 4 Oeste 11 Sudoeste 0 921.1 0.2 77
2019-07-23 01:00:00 16.8 4 Oeste 7 Norte 0 921.4 -0.8 73
2019-07-23 00:00:00 20.2 3 Noroeste 23 Noroeste 0.1 921.5 1.6 61
2019-07-22 23:00:00 22 16 Noroeste 46 Noroeste 0.5 920.9 1.1 52
2019-07-22 22:00:00 22 31 Oeste 67 Sudoeste 0.7 922.2 2.3 50
2019-07-22 21:00:00 22.9 6 Sur 23 Noroeste 0 919.9 -0.1 82
2019-07-22 20:00:00 22.6 10 Este 18 Este 0 919.8 -0.7 79
2019-07-22 19:00:00 24.6 12 Este 19 Este 0 919.9 -1.2 72
2019-07-22 18:00:00 29.9 15 Este 22 Este 0 920 -1.5 47
2019-07-22 17:00:00 31.8 10 Nordeste 22 Nordeste 0 920.5 -1.5 40
2019-07-22 16:00:00 32.8 12 Nordeste 22 Este 0 921.1 -1.3 36
2019-07-22 15:00:00 32.9 10 Nordeste 20 Nordeste 0 921.5 -1.5 32
2019-07-22 14:00:00 30.7 9 Sudeste 20 Sudeste 0 922 -1.2 33
2019-07-22 13:00:00 28.6 5 Nordeste 18 Este 0 922.4 -1.1 46
2019-07-22 12:00:00 25.2 5 Nordeste 13 Norte 0 923 -0.5 58
2019-07-22 11:00:00 23 3 Norte 11 Este 0 923.2 -0.3 65
2019-07-22 10:00:00 20.4 2 Sur 7 Oeste 0 923.5 -0.1 75
2019-07-22 09:00:00 17.9 2 Sudeste 9 Oeste 0 923.5 0 86
2019-07-22 08:00:00 16.5 4 Noroeste 11 Oeste 0 923.5 -0.1 90
2019-07-22 07:00:00 16.2 7 Oeste 11 Oeste 0 923.6 -0.3 90
2019-07-22 06:00:00 16.3 7 Oeste 10 Oeste 0 923.5 -0.8 89
2019-07-22 05:00:00 16.5 5 Oeste 8 Oeste 0 923.6 -1.1 89
2019-07-22 04:00:00 16.2 2 Oeste 4 Noroeste 0 923.9 -1 91
2019-07-22 03:00:00 16.1 0 Calma 5 Nordeste 0 924.3 -0.8 91
2019-07-22 02:00:00 16.2 2 Este 8 Este 0 924.7 -0.1 91
2019-07-22 01:00:00 16.6 4 Este 7 Este 0 924.9 0.5 90
2019-07-22 00:00:00 17.2 2 Nordeste 11 Oeste 0 925.1 1.4 87